Date,TemperatureHighF,TemperatureAvgF,TemperatureLowF,DewpointHighF,DewpointAvgF,DewpointLowF,HumidityHigh,HumidityAvg,HumidityLow,PressureMaxIn,PressureMinIn,WindSpeedMaxMPH,WindSpeedAvgMPH,GustSpeedMaxMPH,PrecipitationSumIn
2014-2-1,45.3,33.9,25.7,28.1,17.1,10.1,80,51,33,30.37,30.06,10,3,10,0.00
2014-2-2,48.9,37.7,32.9,36.4,31.3,26.8,92,78,52,30.12,29.91,13,4,13,0.06
2014-2-3,32.9,27.5,17.2,26.8,19.8,10.4,79,72,60,30.30,30.11,7,2,7,0.00
2014-2-4,35.2,23.3,12.7,17.9,12.2,5.5,75,63,41,30.46,30.29,8,2,8,0.01
2014-2-5,25.9,23.4,20.7,19.6,16.0,13.7,79,73,62,30.31,29.68,8,3,8,0.02
2014-2-6,39.7,18.3,9.7,14.3,3.7,-4.4,76,54,24,30.27,29.96,11,3,11,0.00
2014-2-7,29.3,16.1,5.4,4.6,-2.0,-6.9,59,45,24,30.25,30.16,16,4,16,0.00
2014-2-8,26.1,16.9,5.5,-2.2,-7.3,-11.1,50,34,22,30.29,30.12,11,4,11,0.00
2014-2-9,33.1,21.9,12.6,12.7,4.5,-5.9,74,48,32,30.17,29.95,7,2,7,0.00
2014-2-10,31.5,17.9,7.3,11.1,2.7,-7.5,72,52,28,30.21,29.92,14,4,14,0.00
2014-2-11,27.9,11.9,1.8,-0.1,-7.3,-12.1,62,43,21,30.42,30.20,15,3,15,0.00
2014-2-12,32.2,14.5,-3.8,-2.4,-10.8,-19.6,52,33,18,30.54,30.37,10,2,10,0.00
2014-2-13,30.7,23.4,14.2,27.3,16.5,-2.7,87,75,46,30.37,29.06,22,5,22,0.00
2014-2-14,32.4,28.2,23.7,28.1,19.2,12.7,88,70,54,29.78,28.94,27,8,27,0.06
2014-2-15,30.6,25.1,19.4,20.3,17.2,12.0,79,72,59,29.88,29.58,14,3,14,0.00
2014-2-16,30.0,20.8,15.4,19.5,3.2,-3.0,77,47,25,30.00,29.58,22,8,22,0.06
2014-2-17,35.8,16.5,5.9,-1.1,-10.9,-20.1,47,29,19,30.36,30.00,14,5,14,0.09
2014-2-18,26.4,15.8,3.7,20.2,2.7,-17.8,77,57,28,30.34,29.94,8,3,8,0.00
2014-2-19,33.8,25.0,16.9,30.1,18.0,9.5,90,75,54,30.19,29.79,8,2,8,0.02
2014-2-20,45.3,34.9,27.5,28.2,23.9,16.3,88,67,39,30.27,29.93,11,4,11,0.13
2014-2-21,35.8,33.2,31.3,32.9,30.2,27.6,91,89,84,30.19,29.76,14,4,14,0.21
2014-2-22,49.6,38.3,27.9,33.6,22.8,14.9,92,59,26,30.05,29.93,21,6,21,0.01
2014-2-23,44.6,39.2,31.8,22.4,19.3,14.6,54,45,36,30.07,29.86,13,4,13,0.00
2014-2-24,35.8,27.1,18.3,20.6,4.7,-5.7,54,38,23,29.99,29.83,23,8,23,0.00
2014-2-25,27.1,17.9,10.8,3.1,-2.4,-5.6,51,40,29,30.03,29.93,17,6,17,0.00
2014-2-26,25.9,14.4,3.0,2.5,-8.0,-23.2,53,37,19,29.98,29.82,14,4,16,0.00
2014-2-27,25.0,13.6,3.0,12.2,-8.2,-20.2,66,38,20,29.96,29.64,19,5,24,0.00
2014-2-28,28.0,10.8,0.7,-7.7,-17.7,-24.7,38,26,18,30.45,29.96,15,4,15,0.00